Fort Lauderdale, FL (33301)

10:40 PM EDT on August 04, 2015 (GMT -0400)
Victoria Park | | Change Station
CLOSE
Current Station
Personal Weather Station
Location: Fort Lauderdale, FL
Elevation: 30 ft
Nearby Weather Stations

Elev 30 ft 26.13 °N, 80.13 °W | Updated 7 minutes ago

Partly Cloudy
Partly Cloudy
88.0 °F
Feels Like 101 °F
N
0.0
Wind Variable Wind from South

Today
High -- | Low -- °F
--% Chance of Precip.
Yesterday
High -- | Low -- °F
Precip. -- in
6:47 AM 8:05 PM
Waning Gibbous, 72% visible
Pressure 30.09 in
Visibility 10.0 miles
Clouds Scattered Clouds 25000 ft
Heat Index 101 °F
Dew Point 77 °F
Humidity 71%
Rainfall 0.00 in
Snow Depth Not available.
UV 0 out of 12
Pollen 3.00 out of 12
Air Quality Not available.
Flu Activity Not available.
METAR KFLL 050153Z 13007KT 10SM SCT250 29/24 A3009 RMK AO2 SLP188 T02890244

More Conditions Fewer Conditions

Pressure 30.09 in
Visibility 10.0 miles
Clouds Scattered Clouds 25000 ft
Heat Index 101 °F
Dew Point 77 °F
Humidity 71%
Rainfall 0.00 in
Snow Depth Not available.
UV 0 out of 12
Pollen 3.00 out of 12
Air Quality Not available.
Flu Activity Not available.
METAR KFLL 050153Z 13007KT 10SM SCT250 29/24 A3009 RMK AO2 SLP188 T02890244

More Conditions Fewer Conditions

10-Day Weather Forecast

×

Almanac

Astronomy

Aug. 04, 2015 Rise Set
Actual Time
Civil Twilight
Nautical Twilight
Astronomical Twilight
Moon
Length of Visible Light
Length of Day
Tomorrow will be .
, % of the Moon is Illuminated

Today's Extremes

State Highs State Lows

Community

WunderPhotos

Upload Photos

1,844,089 photos uploaded!

WunderBlogs® & News

Nearby

Air Quality

  Air Quality AQ Index Pollutant
Not available.

Snow Depth

Station Depth Elevation

Earthquake Activity

City Distance Mag. Time & Date
Minimum magnitude displayed is 2.5.

Coastal Water Temperatures

Place Temperature

Stations

Nearby Weather Stations

Station Location Temp. Windchill Dew Point Humidity Wind Precip. Elev Updated Type